Terminal Aerodrome Forecast
Issued by NWS

Home | Current Version | Previous Version | Text Only | Print | Product List | Glossary On
Versions: 1 2 3 4 5 6 7 8 9 10 11 12 13 14 15 16 17
000
FTUS46 KMFR 301735
TAFOTH
TAF
KOTH 301735Z 3018/3118 36012KT P6SM SKC
     FM301900 35018G24KT P6SM SKC
     FM302100 36023G29KT P6SM SKC
     FM310400 36010KT P6SM SKC
     FM310700 02005KT P6SM SKC=

USA.gov is the U.S. government's official web portal to all federal, state and local government web resources and services.